createdAt,value
2022-11-16T00:04:04.334Z,10.8
2022-11-16T00:14:05.094Z,10.8
2022-11-16T00:24:05.347Z,10.8
2022-11-16T00:34:06.063Z,10.8
2022-11-16T00:44:06.761Z,10.7
2022-11-16T00:54:07.314Z,10.7
2022-11-16T01:04:08.134Z,10.6
2022-11-16T01:14:08.415Z,10.6
2022-11-16T01:24:09.394Z,10.6
2022-11-16T01:34:09.957Z,10.6
2022-11-16T01:44:10.684Z,10.6
2022-11-16T01:54:11.095Z,10.6
2022-11-16T02:04:11.905Z,10.6
2022-11-16T02:14:12.294Z,10.6
2022-11-16T02:24:13.092Z,10.7
2022-11-16T02:34:13.236Z,10.7
2022-11-16T02:44:13.589Z,10.7
2022-11-16T02:54:14.570Z,10.7
2022-11-16T03:04:14.678Z,10.7
2022-11-16T03:14:15.321Z,10.7
2022-11-16T03:34:16.960Z,10.7
2022-11-16T03:44:17.687Z,10.6
2022-11-16T03:54:17.917Z,10.6
2022-11-16T04:04:18.201Z,10.6
2022-11-16T04:14:19.066Z,10.6
2022-11-16T04:24:19.865Z,10.6
2022-11-16T04:34:19.984Z,10.6
2022-11-16T04:44:20.388Z,10.6
2022-11-16T04:54:21.442Z,10.7
2022-11-16T05:04:22.375Z,10.8
2022-11-16T05:14:22.523Z,10.9
2022-11-16T05:24:23.407Z,11
2022-11-16T05:34:24.219Z,11
2022-11-16T05:44:24.357Z,11.1
2022-11-16T05:54:25.075Z,11.1
2022-11-16T06:04:25.456Z,11.1
2022-11-16T06:14:25.587Z,11.1
2022-11-16T06:24:26.264Z,11.1
2022-11-16T06:34:27.080Z,11.1
2022-11-16T06:44:27.507Z,11.1
2022-11-16T06:54:28.343Z,11
2022-11-16T07:04:28.802Z,11
2022-11-16T07:14:29.275Z,10.9
2022-11-16T07:24:30.102Z,10.9
2022-11-16T07:34:31.078Z,10.9
2022-11-16T07:44:31.681Z,10.9
2022-11-16T07:54:32.445Z,11
2022-11-16T08:04:32.585Z,11
2022-11-16T08:14:33.453Z,11
2022-11-16T08:24:33.542Z,11
2022-11-16T08:44:34.388Z,10.8
2022-11-16T08:54:34.569Z,10.8
2022-11-16T09:04:37.138Z,10.9
2022-11-16T09:14:35.899Z,11.1
2022-11-16T09:24:36.148Z,11.6
2022-11-16T09:24:58.032Z,11.6
2022-11-16T09:34:42.260Z,12.4
2022-11-16T09:44:42.590Z,13.1
2022-11-16T09:54:43.187Z,12.8
2022-11-16T10:04:43.346Z,13
2022-11-16T10:14:44.344Z,13
2022-11-16T10:24:44.991Z,13.4
2022-11-16T10:34:45.915Z,13.6
2022-11-16T10:44:46.285Z,13.5
2022-11-16T10:54:47.119Z,13
2022-11-16T11:04:47.582Z,12.8
2022-11-16T11:14:48.139Z,12.3
2022-11-16T11:34:49.731Z,12.4
2022-11-16T11:44:49.963Z,12.3
2022-11-16T11:54:50.449Z,12.4
2022-11-16T12:04:50.985Z,13.2
2022-11-16T12:24:51.821Z,12.6
2022-11-16T12:34:52.079Z,12.4
2022-11-16T12:44:52.678Z,13.1
2022-11-16T12:55:23.900Z,13.3
2022-11-16T13:04:53.507Z,13.5
2022-11-16T13:14:54.368Z,12.7
2022-11-16T13:24:55.369Z,13.2
2022-11-16T13:34:56.136Z,13.5
2022-11-16T13:44:56.786Z,13.5
2022-11-16T13:54:57.330Z,13
2022-11-16T14:04:58.056Z,13
2022-11-16T14:15:02.334Z,12.4
2022-11-16T14:24:59.097Z,12.4
2022-11-16T14:34:59.774Z,12.3
2022-11-16T14:45:00.321Z,12.2
2022-11-16T14:55:00.646Z,12.1
2022-11-16T15:05:01.218Z,12
2022-11-16T15:15:02.187Z,11.9
2022-11-16T15:25:02.919Z,11.8
2022-11-16T15:35:05.419Z,11.7
2022-11-16T15:45:04.418Z,11.5
2022-11-16T15:55:04.931Z,11.2
2022-11-16T16:05:05.085Z,11
2022-11-16T16:15:05.735Z,11
2022-11-16T16:25:05.861Z,10.8
2022-11-16T16:35:06.203Z,10.5
2022-11-16T16:45:06.603Z,10.3
2022-11-16T16:55:07.655Z,10.2
2022-11-16T17:05:08.699Z,10.1
2022-11-16T17:15:08.950Z,10.1
2022-11-16T17:25:09.125Z,10
2022-11-16T17:35:09.401Z,9.9
2022-11-16T17:45:09.927Z,9.7
2022-11-16T17:55:10.714Z,9.6
2022-11-16T18:05:11.706Z,9.6
2022-11-16T18:15:27.791Z,9.7
2022-11-16T18:25:13.024Z,9.7
2022-11-16T18:35:13.118Z,9.7
2022-11-16T18:45:14.058Z,9.6
2022-11-16T18:55:14.880Z,9.6
2022-11-16T19:05:15.606Z,9.5
2022-11-16T19:15:16.664Z,9.3
2022-11-16T19:25:17.427Z,8.6
2022-11-16T19:35:17.646Z,7.9
2022-11-16T19:45:18.625Z,7.7
2022-11-16T20:05:19.602Z,7.6
2022-11-16T20:15:20.084Z,8.3
2022-11-16T20:25:20.499Z,8.7
2022-11-16T20:35:21.025Z,8.9
2022-11-16T20:45:21.937Z,9
2022-11-16T20:55:22.879Z,9.2
2022-11-16T21:05:23.868Z,9.2
2022-11-16T21:15:24.042Z,9.2
2022-11-16T21:25:24.893Z,9.2
2022-11-16T21:35:25.882Z,9.2
2022-11-16T21:45:26.353Z,9.3
2022-11-16T21:55:27.112Z,9.3
2022-11-16T22:05:28.138Z,9.3
2022-11-16T22:15:28.975Z,9.3
2022-11-16T22:25:29.637Z,9.4
2022-11-16T22:35:30.557Z,9.4
2022-11-16T22:45:30.889Z,9.4
2022-11-16T22:55:31.098Z,9.4
2022-11-16T23:05:31.384Z,9.5
2022-11-16T23:15:31.942Z,9.5
2022-11-16T23:25:32.691Z,9.6
2022-11-16T23:35:33.174Z,9.6
2022-11-16T23:45:34.185Z,9.7
2022-11-16T23:55:34.882Z,9.7
